Time,TemperatureF,DewpointF,PressureIn,WindDirection,WindDirectionDegrees,WindSpeedMPH,WindSpeedGustMPH,Humidity,HourlyPrecipIn,Conditions,Clouds,dailyrainin,SoftwareType,DateUTC
2013-04-21 00:00:00,44.4,31.0,30.30,NE,39,0.0,6.0,59,0.00,,---,0.00,VWS V14.01,2013-04-21 04:00:00,
2013-04-21 00:01:00,44.8,32.2,30.30,NE,49,3.0,3.0,61,0.00,,---,0.00,VWS V14.01,2013-04-21 04:01:00,
2013-04-21 00:06:00,45.9,31.5,30.31,NE,47,1.0,6.0,57,0.00,,---,0.00,VWS V14.01,2013-04-21 04:06:00,
2013-04-21 00:10:00,46.2,30.5,30.31,NE,56,4.0,7.0,54,0.00,,---,0.00,VWS V14.01,2013-04-21 04:10:00,
2013-04-21 00:11:00,46.5,30.8,30.31,East,88,2.0,6.0,54,0.00,,---,0.00,VWS V14.01,2013-04-21 04:11:00,
2013-04-21 00:16:00,46.8,30.1,30.31,ENE,67,1.0,6.0,52,0.00,,---,0.00,VWS V14.01,2013-04-21 04:16:00,
2013-04-21 00:20:00,46.9,29.7,30.31,ENE,68,1.0,7.0,51,0.00,,---,0.00,VWS V14.01,2013-04-21 04:20:00,
2013-04-21 00:21:00,46.9,29.7,30.31,NE,46,1.0,8.0,51,0.00,,---,0.00,VWS V14.01,2013-04-21 04:21:00,
2013-04-21 00:26:00,47.0,30.3,30.32,NNE,32,2.0,8.0,52,0.00,,---,0.00,VWS V14.01,2013-04-21 04:26:00,
2013-04-21 00:30:00,46.9,29.7,30.32,ENE,57,4.0,9.0,51,0.00,,---,0.00,VWS V14.01,2013-04-21 04:30:00,
2013-04-21 00:32:00,46.9,30.2,30.32,NE,49,4.0,5.0,52,0.00,,---,0.00,VWS V14.01,2013-04-21 04:32:00,
2013-04-21 00:37:00,46.6,29.5,30.32,NE,49,4.0,6.0,51,0.00,,---,0.00,VWS V14.01,2013-04-21 04:37:00,
2013-04-21 00:40:00,46.4,29.3,30.33,NNE,31,2.0,6.0,51,0.00,,---,0.00,VWS V14.01,2013-04-21 04:40:00,
2013-04-21 00:42:00,46.4,29.3,30.33,ENE,58,4.0,10.0,51,0.00,,---,0.00,VWS V14.01,2013-04-21 04:42:00,
2013-04-21 00:47:00,46.3,29.2,30.33,ENE,68,3.0,10.0,51,0.00,,---,0.00,VWS V14.01,2013-04-21 04:47:00,
2013-04-21 00:50:00,46.4,29.3,30.33,ENE,70,3.0,10.0,51,0.00,,---,0.00,VWS V14.01,2013-04-21 04:50:00,
2013-04-21 00:52:00,46.4,28.8,30.33,NNE,26,5.0,9.0,50,0.00,,---,0.00,VWS V14.01,2013-04-21 04:52:00,
2013-04-21 00:57:00,46.4,28.8,30.33,NE,47,3.0,9.0,50,0.00,,---,0.00,VWS V14.01,2013-04-21 04:57:00,
2013-04-21 01:00:00,46.3,28.7,30.33,ENE,61,3.0,9.0,50,0.00,,---,0.00,VWS V14.01,2013-04-21 05:00:00,
2013-04-21 01:02:00,46.3,29.2,30.33,ENE,63,1.0,3.0,51,0.00,,---,0.00,VWS V14.01,2013-04-21 05:02:00,
2013-04-21 01:07:00,46.1,29.0,30.34,ENE,58,3.0,7.0,51,0.00,,---,0.00,VWS V14.01,2013-04-21 05:07:00,
2013-04-21 01:10:00,46.0,28.4,30.34,ENE,70,1.0,7.0,50,0.00,,---,0.00,VWS V14.01,2013-04-21 05:10:00,
2013-04-21 01:12:00,45.9,28.8,30.34,ENE,76,2.0,3.0,51,0.00,,---,0.00,VWS V14.01,2013-04-21 05:12:00,
2013-04-21 01:17:00,45.7,28.6,30.34,ENE,62,3.0,4.0,51,0.00,,---,0.00,VWS V14.01,2013-04-21 05:17:00,
2013-04-21 01:20:00,45.6,29.5,30.34,ENE,67,2.0,4.0,53,0.00,,---,0.00,VWS V14.01,2013-04-21 05:20:00,
2013-04-21 01:22:00,45.4,28.8,30.34,NE,40,2.0,2.0,52,0.00,,---,0.00,VWS V14.01,2013-04-21 05:22:00,
2013-04-21 01:27:00,45.2,29.1,30.34,NE,39,1.0,4.0,53,0.00,,---,0.00,VWS V14.01,2013-04-21 05:27:00,
2013-04-21 01:30:00,45.0,29.4,30.34,NNE,26,3.0,4.0,54,0.00,,---,0.00,VWS V14.01,2013-04-21 05:30:00,
2013-04-21 01:32:00,45.0,28.9,30.34,NE,47,1.0,5.0,53,0.00,,---,0.00,VWS V14.01,2013-04-21 05:32:00,
2013-04-21 01:37:00,45.0,28.9,30.34,ENE,59,3.0,9.0,53,0.00,,---,0.00,VWS V14.01,2013-04-21 05:37:00,
2013-04-21 01:40:00,45.0,29.4,30.34,ENE,74,0.0,9.0,54,0.00,,---,0.00,VWS V14.01,2013-04-21 05:40:00,
2013-04-21 01:42:00,44.9,29.3,30.34,ENE,68,0.0,6.0,54,0.00,,---,0.00,VWS V14.01,2013-04-21 05:42:00,
2013-04-21 01:47:00,44.8,29.2,30.34,ENE,66,4.0,7.0,54,0.00,,---,0.00,VWS V14.01,2013-04-21 05:47:00,
2013-04-21 01:50:00,44.7,29.5,30.34,NE,56,4.0,7.0,55,0.00,,---,0.00,VWS V14.01,2013-04-21 05:50:00,
2013-04-21 01:52:00,44.7,28.6,30.34,East,100,3.0,6.0,53,0.00,,---,0.00,VWS V14.01,2013-04-21 05:52:00,
2013-04-21 01:57:00,44.5,28.9,30.35,ENE,75,1.0,7.0,54,0.00,,---,0.00,VWS V14.01,2013-04-21 05:57:00,
2013-04-21 02:00:00,44.5,29.4,30.35,ENE,70,2.0,7.0,55,0.00,,---,0.00,VWS V14.01,2013-04-21 06:00:00,
2013-04-21 02:02:00,44.3,29.2,30.35,ENE,61,1.0,3.0,55,0.00,,---,0.00,VWS V14.01,2013-04-21 06:02:00,
2013-04-21 02:07:00,44.0,29.8,30.35,East,80,0.0,5.0,57,0.00,,---,0.00,VWS V14.01,2013-04-21 06:07:00,
2013-04-21 02:10:00,43.7,29.0,30.35,ENE,70,0.0,5.0,56,0.00,,---,0.00,VWS V14.01,2013-04-21 06:10:00,
2013-04-21 02:12:00,43.7,29.5,30.35,East,79,0.0,1.0,57,0.00,,---,0.00,VWS V14.01,2013-04-21 06:12:00,
2013-04-21 02:17:00,43.3,29.1,30.35,ENE,67,0.0,2.0,57,0.00,,---,0.00,VWS V14.01,2013-04-21 06:17:00,
2013-04-21 02:20:00,43.2,29.4,30.35,ENE,63,0.0,3.0,58,0.00,,---,0.00,VWS V14.01,2013-04-21 06:20:00,
2013-04-21 02:22:00,43.1,29.8,30.35,ENE,58,0.0,2.0,59,0.00,,---,0.00,VWS V14.01,2013-04-21 06:22:00,
2013-04-21 02:27:00,42.9,29.6,30.36,NE,55,3.0,5.0,59,0.00,,---,0.00,VWS V14.01,2013-04-21 06:27:00,
2013-04-21 02:30:00,42.9,29.2,30.36,ENE,68,1.0,5.0,58,0.00,,---,0.00,VWS V14.01,2013-04-21 06:30:00,
2013-04-21 02:32:00,42.9,30.0,30.36,NE,50,0.0,4.0,60,0.00,,---,0.00,VWS V14.01,2013-04-21 06:32:00,
2013-04-21 02:37:00,42.4,29.9,30.36,ENE,71,0.0,4.0,61,0.00,,---,0.00,VWS V14.01,2013-04-21 06:37:00,
2013-04-21 02:40:00,42.2,30.1,30.36,NE,36,1.0,4.0,62,0.00,,---,0.00,VWS V14.01,2013-04-21 06:40:00,
2013-04-21 02:42:00,41.9,30.6,30.36,NE,34,0.0,1.0,64,0.00,,---,0.00,VWS V14.01,2013-04-21 06:42:00,
2013-04-21 02:47:00,41.6,29.6,30.36,NE,34,0.0,1.0,62,0.00,,---,0.00,VWS V14.01,2013-04-21 06:47:00,
2013-04-21 02:50:00,41.5,29.1,30.36,North,356,0.0,1.0,61,0.00,,---,0.00,VWS V14.01,2013-04-21 06:50:00,
2013-04-21 02:52:00,41.4,29.4,30.36,NNE,32,0.0,1.0,62,0.00,,---,0.00,VWS V14.01,2013-04-21 06:52:00,
2013-04-21 02:57:00,41.0,30.1,30.37,NNE,22,0.0,1.0,65,0.00,,---,0.00,VWS V14.01,2013-04-21 06:57:00,
2013-04-21 03:00:00,40.7,29.5,30.37,NNE,21,0.0,1.0,64,0.00,,---,0.00,VWS V14.01,2013-04-21 07:00:00,
2013-04-21 03:02:00,40.5,30.0,30.37,NNE,21,0.0,0.0,66,0.00,,---,0.00,VWS V14.01,2013-04-21 07:02:00,
2013-04-21 03:07:00,40.0,30.3,30.37,NNE,25,0.0,1.0,68,0.00,,---,0.00,VWS V14.01,2013-04-21 07:07:00,
2013-04-21 03:10:00,40.0,29.2,30.37,NE,56,1.0,3.0,65,0.00,,---,0.00,VWS V14.01,2013-04-21 07:10:00,
2013-04-21 03:12:00,40.2,30.5,30.37,NE,45,0.0,1.0,68,0.00,,---,0.00,VWS V14.01,2013-04-21 07:12:00,
2013-04-21 03:17:00,40.1,30.8,30.38,NW,315,0.0,2.0,69,0.00,,---,0.00,VWS V14.01,2013-04-21 07:17:00,
2013-04-21 03:20:00,39.9,30.6,30.38,NW,316,0.0,2.0,69,0.00,,---,0.00,VWS V14.01,2013-04-21 07:20:00,
2013-04-21 03:22:00,39.6,29.9,30.38,ENE,66,1.0,2.0,68,0.00,,---,0.00,VWS V14.01,2013-04-21 07:22:00,
2013-04-21 03:27:00,39.6,29.6,30.38,NNW,342,0.0,4.0,67,0.00,,---,0.00,VWS V14.01,2013-04-21 07:27:00,
2013-04-21 03:30:00,39.6,30.3,30.38,NNW,344,0.0,4.0,69,0.00,,---,0.00,VWS V14.01,2013-04-21 07:30:00,
2013-04-21 03:32:00,39.4,29.4,30.38,ENE,78,0.0,1.0,67,0.00,,---,0.00,VWS V14.01,2013-04-21 07:32:00,
2013-04-21 03:37:00,39.2,29.5,30.38,ENE,72,0.0,1.0,68,0.00,,---,0.00,VWS V14.01,2013-04-21 07:37:00,
2013-04-21 03:40:00,39.1,30.2,30.39,North,6,0.0,1.0,70,0.00,,---,0.00,VWS V14.01,2013-04-21 07:40:00,
2013-04-21 03:42:00,38.9,30.0,30.39,North,6,0.0,1.0,70,0.00,,---,0.00,VWS V14.01,2013-04-21 07:42:00,
2013-04-21 03:47:00,39.2,29.5,30.39,NNE,23,1.0,2.0,68,0.00,,---,0.00,VWS V14.01,2013-04-21 07:47:00,
2013-04-21 03:50:00,39.3,29.6,30.39,NNE,23,0.0,2.0,68,0.00,,---,0.00,VWS V14.01,2013-04-21 07:50:00,
2013-04-21 03:52:00,39.3,29.6,30.39,NE,45,0.0,2.0,68,0.00,,---,0.00,VWS V14.01,2013-04-21 07:52:00,
2013-04-21 03:57:00,39.3,29.3,30.39,NE,55,0.0,3.0,67,0.00,,---,0.00,VWS V14.01,2013-04-21 07:57:00,
2013-04-21 04:00:00,39.3,28.9,30.39,NE,43,0.0,3.0,66,0.00,,---,0.00,VWS V14.01,2013-04-21 08:00:00,
2013-04-21 04:02:00,39.2,30.2,30.40,NE,34,0.0,1.0,70,0.00,,---,0.00,VWS V14.01,2013-04-21 08:02:00,
2013-04-21 04:07:00,38.8,29.2,30.40,NE,35,0.0,1.0,68,0.00,,---,0.00,VWS V14.01,2013-04-21 08:07:00,
2013-04-21 04:10:00,38.7,29.4,30.40,NE,35,0.0,1.0,69,0.00,,---,0.00,VWS V14.01,2013-04-21 08:10:00,
2013-04-21 04:12:00,38.6,29.0,30.40,North,11,0.0,1.0,68,0.00,,---,0.00,VWS V14.01,2013-04-21 08:12:00,
2013-04-21 04:17:00,38.6,28.6,30.41,NE,55,0.0,2.0,67,0.00,,---,0.00,VWS V14.01,2013-04-21 08:17:00,
2013-04-21 04:20:00,38.5,29.6,30.41,NE,53,0.0,2.0,70,0.00,,---,0.00,VWS V14.01,2013-04-21 08:20:00,
2013-04-21 04:22:00,38.3,29.7,30.41,NNE,20,0.0,1.0,71,0.00,,---,0.00,VWS V14.01,2013-04-21 08:22:00,
2013-04-21 04:27:00,38.0,29.8,30.41,North,352,0.0,1.0,72,0.00,,---,0.00,VWS V14.01,2013-04-21 08:27:00,
2013-04-21 04:30:00,37.9,29.0,30.41,ENE,72,0.0,1.0,70,0.00,,---,0.00,VWS V14.01,2013-04-21 08:30:00,
2013-04-21 04:32:00,37.9,29.4,30.41,North,359,1.0,1.0,71,0.00,,---,0.00,VWS V14.01,2013-04-21 08:32:00,
2013-04-21 04:37:00,37.6,30.1,30.42,NNW,340,0.0,1.0,74,0.00,,---,0.00,VWS V14.01,2013-04-21 08:37:00,
2013-04-21 04:40:00,37.5,29.3,30.42,NNE,31,0.0,2.0,72,0.00,,---,0.00,VWS V14.01,2013-04-21 08:40:00,
2013-04-21 04:42:00,37.4,29.2,30.42,North,352,1.0,1.0,72,0.00,,---,0.00,VWS V14.01,2013-04-21 08:42:00,
2013-04-21 04:47:00,37.1,29.3,30.42,NNW,335,0.0,1.0,73,0.00,,---,0.00,VWS V14.01,2013-04-21 08:47:00,
2013-04-21 04:50:00,37.0,29.5,30.42,NNW,342,1.0,1.0,74,0.00,,---,0.00,VWS V14.01,2013-04-21 08:50:00,
2013-04-21 04:52:00,36.9,29.4,30.43,ENE,63,0.0,1.0,74,0.00,,---,0.00,VWS V14.01,2013-04-21 08:52:00,
2013-04-21 04:57:00,36.8,29.3,30.43,NNE,26,0.0,1.0,74,0.00,,---,0.00,VWS V14.01,2013-04-21 08:57:00,
2013-04-21 05:00:00,36.7,29.2,30.42,NNE,25,0.0,1.0,74,0.00,,---,0.00,VWS V14.01,2013-04-21 09:00:00,
2013-04-21 05:02:00,36.6,28.8,30.43,NNW,347,1.0,2.0,73,0.00,,---,0.00,VWS V14.01,2013-04-21 09:02:00,
2013-04-21 05:07:00,36.6,28.4,30.43,North,349,0.0,2.0,72,0.00,,---,0.00,VWS V14.01,2013-04-21 09:07:00,
2013-04-21 05:10:00,36.5,28.4,30.43,NNE,13,0.0,2.0,72,0.00,,---,0.00,VWS V14.01,2013-04-21 09:10:00,
2013-04-21 05:12:00,36.5,28.7,30.44,NE,44,0.0,2.0,73,0.00,,---,0.00,VWS V14.01,2013-04-21 09:12:00,
2013-04-21 05:17:00,36.6,28.4,30.44,NNE,33,1.0,2.0,72,0.00,,---,0.00,VWS V14.01,2013-04-21 09:17:00,
2013-04-21 05:20:00,36.6,28.8,30.44,North,6,2.0,2.0,73,0.00,,---,0.00,VWS V14.01,2013-04-21 09:20:00,
2013-04-21 05:22:00,36.7,28.2,30.44,ENE,64,0.0,2.0,71,0.00,,---,0.00,VWS V14.01,2013-04-21 09:22:00,
2013-04-21 05:27:00,36.8,29.0,30.44,North,356,0.0,2.0,73,0.00,,---,0.00,VWS V14.01,2013-04-21 09:27:00,
2013-04-21 05:30:00,36.7,29.2,30.44,North,359,0.0,2.0,74,0.00,,---,0.00,VWS V14.01,2013-04-21 09:30:00,
2013-04-21 05:32:00,36.4,29.2,30.44,North,359,0.0,1.0,75,0.00,,---,0.00,VWS V14.01,2013-04-21 09:32:00,
2013-04-21 05:37:00,36.1,28.6,30.44,NNE,32,0.0,2.0,74,0.00,,---,0.00,VWS V14.01,2013-04-21 09:37:00,
2013-04-21 05:40:00,36.2,28.7,30.45,North,360,0.0,2.0,74,0.00,,---,0.00,VWS V14.01,2013-04-21 09:40:00,
2013-04-21 05:42:00,36.2,29.0,30.45,NE,46,3.0,6.0,75,0.00,,---,0.00,VWS V14.01,2013-04-21 09:42:00,
2013-04-21 05:47:00,36.6,28.8,30.45,North,7,0.0,6.0,73,0.00,,---,0.00,VWS V14.01,2013-04-21 09:47:00,
2013-04-21 05:50:00,36.6,29.1,30.45,NNW,345,1.0,6.0,74,0.00,,---,0.00,VWS V14.01,2013-04-21 09:50:00,
2013-04-21 05:52:00,36.6,28.4,30.46,NNE,25,1.0,2.0,72,0.00,,---,0.00,VWS V14.01,2013-04-21 09:52:00,
2013-04-21 05:57:00,37.1,29.3,30.46,NNE,31,2.0,3.0,73,0.00,,---,0.00,VWS V14.01,2013-04-21 09:57:00,
2013-04-21 06:00:00,37.1,28.9,30.46,North,356,0.0,3.0,72,0.00,,---,0.00,VWS V14.01,2013-04-21 10:00:00,
2013-04-21 06:02:00,36.9,28.7,30.46,NNE,20,1.0,3.0,72,0.00,,---,0.00,VWS V14.01,2013-04-21 10:02:00,
2013-04-21 06:08:00,37.0,29.5,30.46,NE,50,4.0,5.0,74,0.00,,---,0.00,VWS V14.01,2013-04-21 10:08:00,
2013-04-21 06:10:00,37.1,28.6,30.47,ENE,59,1.0,5.0,71,0.00,,---,0.00,VWS V14.01,2013-04-21 10:10:00,
2013-04-21 06:12:00,37.3,29.1,30.47,NNE,21,1.0,6.0,72,0.00,,---,0.00,VWS V14.01,2013-04-21 10:12:00,
2013-04-21 06:18:00,37.5,29.3,30.47,NNE,22,1.0,6.0,72,0.00,,---,0.00,VWS V14.01,2013-04-21 10:18:00,
2013-04-21 06:20:00,37.5,28.6,30.47,North,356,1.0,6.0,70,0.00,,---,0.00,VWS V14.01,2013-04-21 10:20:00,
2013-04-21 06:23:00,37.5,29.3,30.47,NNE,29,1.0,2.0,72,0.00,,---,0.00,VWS V14.01,2013-04-21 10:23:00,
2013-04-21 06:28:00,36.9,30.0,30.48,NW,326,0.0,2.0,76,0.00,,---,0.00,VWS V14.01,2013-04-21 10:28:00,
2013-04-21 06:30:00,36.8,28.6,30.48,NE,48,0.0,7.0,72,0.00,,---,0.00,VWS V14.01,2013-04-21 10:30:00,
2013-04-21 06:33:00,37.3,28.1,30.48,NE,39,2.0,6.0,69,0.00,,---,0.00,VWS V14.01,2013-04-21 10:33:00,
2013-04-21 06:38:00,38.0,28.0,30.48,NE,34,1.0,7.0,67,0.00,,---,0.00,VWS V14.01,2013-04-21 10:38:00,
2013-04-21 06:40:00,38.3,28.0,30.48,ENE,73,2.0,7.0,66,0.00,,---,0.00,VWS V14.01,2013-04-21 10:40:00,
2013-04-21 06:43:00,38.6,28.2,30.49,ENE,69,0.0,4.0,66,0.00,,---,0.00,VWS V14.01,2013-04-21 10:43:00,
2013-04-21 06:48:00,38.9,28.1,30.49,NE,51,0.0,7.0,65,0.00,,---,0.00,VWS V14.01,2013-04-21 10:48:00,
2013-04-21 06:50:00,38.9,28.1,30.49,ENE,58,0.0,7.0,65,0.00,,---,0.00,VWS V14.01,2013-04-21 10:50:00,
2013-04-21 06:53:00,39.0,27.9,30.50,ENE,65,2.0,4.0,64,0.00,,---,0.00,VWS V14.01,2013-04-21 10:53:00,
2013-04-21 06:58:00,39.5,28.7,30.50,ENE,74,2.0,5.0,65,0.00,,---,0.00,VWS V14.01,2013-04-21 10:58:00,
2013-04-21 07:00:00,39.7,28.1,30.50,ENE,74,4.0,5.0,63,0.00,,---,0.00,VWS V14.01,2013-04-21 11:00:00,
2013-04-21 07:03:00,39.9,28.3,30.50,ENE,58,1.0,4.0,63,0.00,,---,0.00,VWS V14.01,2013-04-21 11:03:00,
2013-04-21 07:08:00,40.1,28.1,30.51,NE,43,1.0,7.0,62,0.00,,---,0.00,VWS V14.01,2013-04-21 11:08:00,
2013-04-21 07:10:00,40.2,28.2,30.51,ENE,65,3.0,7.0,62,0.00,,---,0.00,VWS V14.01,2013-04-21 11:10:00,
2013-04-21 07:13:00,40.4,28.8,30.51,ENE,64,3.0,4.0,63,0.00,,---,0.00,VWS V14.01,2013-04-21 11:13:00,
2013-04-21 07:18:00,40.5,28.5,30.51,ENE,58,3.0,6.0,62,0.00,,---,0.00,VWS V14.01,2013-04-21 11:18:00,
2013-04-21 07:20:00,40.5,28.5,30.51,ENE,61,2.0,6.0,62,0.00,,---,0.00,VWS V14.01,2013-04-21 11:20:00,
2013-04-21 07:23:00,40.6,28.2,30.52,ENE,63,3.0,5.0,61,0.00,,---,0.00,VWS V14.01,2013-04-21 11:23:00,
2013-04-21 07:28:00,40.5,28.1,30.52,ENE,70,5.0,8.0,61,0.00,,---,0.00,VWS V14.01,2013-04-21 11:28:00,
2013-04-21 07:30:00,40.6,28.2,30.52,NE,52,8.0,8.0,61,0.00,,---,0.00,VWS V14.01,2013-04-21 11:30:00,
2013-04-21 07:33:00,40.7,28.3,30.53,NE,39,1.0,8.0,61,0.00,,---,0.00,VWS V14.01,2013-04-21 11:33:00,
2013-04-21 07:38:00,41.0,27.8,30.53,ENE,70,3.0,11.0,59,0.00,,---,0.00,VWS V14.01,2013-04-21 11:38:00,
2013-04-21 07:40:00,41.1,27.9,30.53,NE,47,4.0,11.0,59,0.00,,---,0.00,VWS V14.01,2013-04-21 11:40:00,
2013-04-21 07:43:00,41.3,27.6,30.53,NNE,33,8.0,12.0,58,0.00,,---,0.00,VWS V14.01,2013-04-21 11:43:00,
2013-04-21 07:48:00,41.5,27.4,30.53,NNW,342,6.0,12.0,57,0.00,,---,0.00,VWS V14.01,2013-04-21 11:48:00,
2013-04-21 07:50:00,41.5,27.4,30.53,ENE,66,6.0,12.0,57,0.00,,---,0.00,VWS V14.01,2013-04-21 11:50:00,
2013-04-21 07:53:00,41.7,27.2,30.53,ENE,68,3.0,12.0,56,0.00,,---,0.00,VWS V14.01,2013-04-21 11:53:00,
2013-04-21 07:58:00,41.8,26.4,30.53,ENE,63,7.0,13.0,54,0.00,,---,0.00,VWS V14.01,2013-04-21 11:58:00,
2013-04-21 08:00:00,41.8,26.4,30.53,ENE,68,2.0,13.0,54,0.00,,---,0.00,VWS V14.01,2013-04-21 12:00:00,
2013-04-21 08:03:00,42.0,26.6,30.54,NE,53,4.0,11.0,54,0.00,,---,0.00,VWS V14.01,2013-04-21 12:03:00,
2013-04-21 08:08:00,42.2,26.8,30.54,NE,56,7.0,13.0,54,0.00,,---,0.00,VWS V14.01,2013-04-21 12:08:00,
2013-04-21 08:10:00,42.2,26.3,30.54,ENE,75,4.0,13.0,53,0.00,,---,0.00,VWS V14.01,2013-04-21 12:10:00,
2013-04-21 08:13:00,42.3,26.4,30.54,NE,56,3.0,11.0,53,0.00,,---,0.00,VWS V14.01,2013-04-21 12:13:00,
2013-04-21 08:18:00,42.3,25.9,30.54,NNE,22,10.0,13.0,52,0.00,,---,0.00,VWS V14.01,2013-04-21 12:18:00,
2013-04-21 08:20:00,42.3,26.4,30.54,NE,46,4.0,13.0,53,0.00,,---,0.00,VWS V14.01,2013-04-21 12:20:00,
2013-04-21 08:23:00,42.5,26.1,30.54,NNE,28,12.0,14.0,52,0.00,,---,0.00,VWS V14.01,2013-04-21 12:23:00,
2013-04-21 08:28:00,42.8,25.9,30.54,NNE,25,7.0,14.0,51,0.00,,---,0.00,VWS V14.01,2013-04-21 12:28:00,
2013-04-21 08:30:00,42.9,26.5,30.54,ESE,112,2.0,14.0,52,0.00,,---,0.00,VWS V14.01,2013-04-21 12:30:00,
2013-04-21 08:33:00,43.0,25.6,30.54,ENE,65,3.0,17.0,50,0.00,,---,0.00,VWS V14.01,2013-04-21 12:33:00,
2013-04-21 08:38:00,43.4,27.0,30.54,NE,40,8.0,17.0,52,0.00,,---,0.00,VWS V14.01,2013-04-21 12:38:00,
2013-04-21 08:40:00,43.4,25.5,30.54,ENE,65,11.0,19.0,49,0.00,,---,0.00,VWS V14.01,2013-04-21 12:40:00,
2013-04-21 08:43:00,43.4,26.0,30.54,NE,45,8.0,14.0,50,0.00,,---,0.00,VWS V14.01,2013-04-21 12:43:00,
2013-04-21 08:48:00,43.5,25.1,30.54,East,84,5.0,15.0,48,0.00,,---,0.00,VWS V14.01,2013-04-21 12:48:00,
2013-04-21 08:50:00,43.5,25.6,30.55,ENE,70,7.0,15.0,49,0.00,,---,0.00,VWS V14.01,2013-04-21 12:50:00,
2013-04-21 08:53:00,43.9,27.0,30.55,East,97,6.0,11.0,51,0.00,,---,0.00,VWS V14.01,2013-04-21 12:53:00,
2013-04-21 08:58:00,43.9,25.5,30.55,ENE,70,8.0,14.0,48,0.00,,---,0.00,VWS V14.01,2013-04-21 12:58:00,
2013-04-21 09:00:00,43.8,25.4,30.55,NE,54,5.0,14.0,48,0.00,,---,0.00,VWS V14.01,2013-04-21 13:00:00,
2013-04-21 09:03:00,43.8,24.9,30.55,NE,38,7.0,19.0,47,0.00,,---,0.00,VWS V14.01,2013-04-21 13:03:00,
2013-04-21 09:08:00,43.7,25.3,30.56,ENE,64,3.0,19.0,48,0.00,,---,0.00,VWS V14.01,2013-04-21 13:08:00,
2013-04-21 09:10:00,43.7,25.3,30.55,ENE,76,8.0,19.0,48,0.00,,---,0.00,VWS V14.01,2013-04-21 13:10:00,
2013-04-21 09:13:00,43.9,26.5,30.55,ENE,75,6.0,15.0,50,0.00,,---,0.00,VWS V14.01,2013-04-21 13:13:00,
2013-04-21 09:18:00,44.1,25.7,30.56,East,80,9.0,15.0,48,0.00,,---,0.00,VWS V14.01,2013-04-21 13:18:00,
2013-04-21 09:20:00,44.1,25.7,30.55,ENE,60,6.0,15.0,48,0.00,,---,0.00,VWS V14.01,2013-04-21 13:20:00,
2013-04-21 09:23:00,44.4,26.0,30.55,ENE,70,10.0,17.0,48,0.00,,---,0.00,VWS V14.01,2013-04-21 13:23:00,
2013-04-21 09:28:00,44.5,25.5,30.56,ENE,73,10.0,17.0,47,0.00,,---,0.00,VWS V14.01,2013-04-21 13:28:00,
2013-04-21 09:30:00,44.5,25.5,30.56,ENE,62,4.0,17.0,47,0.00,,---,0.00,VWS V14.01,2013-04-21 13:30:00,
2013-04-21 09:33:00,44.8,26.3,30.56,ENE,75,8.0,14.0,48,0.00,,---,0.00,VWS V14.01,2013-04-21 13:33:00,
2013-04-21 09:38:00,45.2,26.2,30.56,ENE,60,6.0,15.0,47,0.00,,---,0.00,VWS V14.01,2013-04-21 13:38:00,
2013-04-21 09:40:00,45.2,26.7,30.56,East,98,8.0,15.0,48,0.00,,---,0.00,VWS V14.01,2013-04-21 13:40:00,
2013-04-21 09:43:00,45.1,25.6,30.56,NNE,31,7.0,18.0,46,0.00,,---,0.00,VWS V14.01,2013-04-21 13:43:00,
2013-04-21 09:48:00,45.3,26.3,30.56,East,82,9.0,18.0,47,0.00,,---,0.00,VWS V14.01,2013-04-21 13:48:00,
2013-04-21 09:50:00,45.3,27.3,30.56,East,95,5.0,18.0,49,0.00,,---,0.00,VWS V14.01,2013-04-21 13:50:00,
2013-04-21 09:53:00,45.5,27.0,30.56,ENE,64,4.0,9.0,48,0.00,,---,0.00,VWS V14.01,2013-04-21 13:53:00,
2013-04-21 09:58:00,45.6,27.1,30.56,ENE,76,10.0,14.0,48,0.00,,---,0.00,VWS V14.01,2013-04-21 13:58:00,
2013-04-21 10:00:00,45.6,26.5,30.56,ENE,65,5.0,14.0,47,0.00,,---,0.00,VWS V14.01,2013-04-21 14:00:00,
2013-04-21 10:03:00,45.6,27.1,30.57,ENE,65,5.0,12.0,48,0.00,,---,0.00,VWS V14.01,2013-04-21 14:03:00,
2013-04-21 10:08:00,45.9,27.8,30.57,NW,306,1.0,12.0,49,0.00,,---,0.00,VWS V14.01,2013-04-21 14:08:00,
2013-04-21 10:10:00,45.9,26.8,30.56,NE,54,6.0,12.0,47,0.00,,---,0.00,VWS V14.01,2013-04-21 14:10:00,
2013-04-21 10:13:00,46.0,25.9,30.57,NE,43,2.0,14.0,45,0.00,,---,0.00,VWS V14.01,2013-04-21 14:13:00,
2013-04-21 10:18:00,46.3,28.7,30.57,East,87,1.0,14.0,50,0.00,,---,0.00,VWS V14.01,2013-04-21 14:18:00,
2013-04-21 10:20:00,46.5,28.4,30.57,ENE,60,3.0,14.0,49,0.00,,---,0.00,VWS V14.01,2013-04-21 14:20:00,
2013-04-21 10:23:00,46.5,27.4,30.57,ESE,117,6.0,10.0,47,0.00,,---,0.00,VWS V14.01,2013-04-21 14:23:00,
2013-04-21 10:28:00,46.2,26.0,30.57,NE,39,4.0,18.0,45,0.00,,---,0.00,VWS V14.01,2013-04-21 14:28:00,
2013-04-21 10:30:00,46.2,26.6,30.57,NE,56,2.0,18.0,46,0.00,,---,0.00,VWS V14.01,2013-04-21 14:30:00,
2013-04-21 10:33:00,46.2,26.6,30.56,East,90,13.0,14.0,46,0.00,,---,0.00,VWS V14.01,2013-04-21 14:33:00,
2013-04-21 10:38:00,46.4,28.8,30.56,East,100,13.0,17.0,50,0.00,,---,0.00,VWS V14.01,2013-04-21 14:38:00,
2013-04-21 10:40:00,46.4,28.3,30.56,ESE,115,10.0,18.0,49,0.00,,---,0.00,VWS V14.01,2013-04-21 14:40:00,
2013-04-21 10:43:00,46.3,27.7,30.57,ENE,70,10.0,18.0,48,0.00,,---,0.00,VWS V14.01,2013-04-21 14:43:00,
2013-04-21 10:48:00,46.5,27.9,30.56,SE,124,5.0,18.0,48,0.00,,---,0.00,VWS V14.01,2013-04-21 14:48:00,
2013-04-21 10:50:00,46.5,27.4,30.56,ESE,104,4.0,18.0,47,0.00,,---,0.00,VWS V14.01,2013-04-21 14:50:00,
2013-04-21 10:53:00,46.8,27.1,30.56,ENE,65,5.0,11.0,46,0.00,,---,0.00,VWS V14.01,2013-04-21 14:53:00,
2013-04-21 10:58:00,47.3,28.6,30.56,ESE,109,5.0,11.0,48,0.00,,---,0.00,VWS V14.01,2013-04-21 14:58:00,
2013-04-21 11:00:00,47.5,28.8,30.56,ENE,70,8.0,11.0,48,0.00,,---,0.00,VWS V14.01,2013-04-21 15:00:00,
2013-04-21 11:03:00,47.3,27.6,30.56,ESE,107,4.0,14.0,46,0.00,,---,0.00,VWS V14.01,2013-04-21 15:03:00,
2013-04-21 11:08:00,47.3,28.1,30.56,East,84,12.0,14.0,47,0.00,,---,0.00,VWS V14.01,2013-04-21 15:08:00,
2013-04-21 11:10:00,47.3,28.6,30.56,NE,48,9.0,14.0,48,0.00,,---,0.00,VWS V14.01,2013-04-21 15:10:00,
2013-04-21 11:13:00,47.6,29.4,30.56,ENE,65,8.0,12.0,49,0.00,,---,0.00,VWS V14.01,2013-04-21 15:13:00,
2013-04-21 11:19:00,47.8,28.6,30.56,NNE,31,10.0,12.0,47,0.00,,---,0.00,VWS V14.01,2013-04-21 15:19:00,
2013-04-21 11:20:00,47.8,28.0,30.56,NNE,31,6.0,12.0,46,0.00,,---,0.00,VWS V14.01,2013-04-21 15:20:00,
2013-04-21 11:23:00,47.9,29.2,30.57,ENE,64,11.0,11.0,48,0.00,,---,0.00,VWS V14.01,2013-04-21 15:23:00,
2013-04-21 11:28:00,48.0,28.8,30.56,ENE,75,1.0,11.0,47,0.00,,---,0.00,VWS V14.01,2013-04-21 15:28:00,
2013-04-21 11:30:00,48.0,27.7,30.56,East,85,0.0,11.0,45,0.00,,---,0.00,VWS V14.01,2013-04-21 15:30:00,
2013-04-21 11:34:00,48.1,27.8,30.56,NE,56,2.0,13.0,45,0.00,,---,0.00,VWS V14.01,2013-04-21 15:34:00,
2013-04-21 11:39:00,48.0,27.1,30.57,NE,53,3.0,13.0,44,0.00,,---,0.00,VWS V14.01,2013-04-21 15:39:00,
2013-04-21 11:40:00,48.0,28.8,30.57,NE,56,0.0,13.0,47,0.00,,---,0.00,VWS V14.01,2013-04-21 15:40:00,
2013-04-21 11:44:00,48.2,29.5,30.56,SE,141,1.0,9.0,48,0.00,,---,0.00,VWS V14.01,2013-04-21 15:44:00,
2013-04-21 11:49:00,48.6,28.8,30.57,ENE,60,2.0,11.0,46,0.00,,---,0.00,VWS V14.01,2013-04-21 15:49:00,
2013-04-21 11:50:00,48.6,28.8,30.57,East,98,6.0,11.0,46,0.00,,---,0.00,VWS V14.01,2013-04-21 15:50:00,
2013-04-21 11:54:00,48.6,30.8,30.56,ENE,60,0.0,8.0,50,0.00,,---,0.00,VWS V14.01,2013-04-21 15:54:00,
2013-04-21 11:59:00,49.2,29.3,30.56,East,86,10.0,13.0,46,0.00,,---,0.00,VWS V14.01,2013-04-21 15:59:00,
2013-04-21 12:00:00,49.3,29.4,30.56,ESE,103,9.0,13.0,46,0.00,,---,0.00,VWS V14.01,2013-04-21 16:00:00,
2013-04-21 12:04:00,48.8,27.9,30.56,ESE,119,1.0,13.0,44,0.00,,---,0.00,VWS V14.01,2013-04-21 16:04:00,
2013-04-21 12:09:00,49.3,28.9,30.56,ENE,70,6.0,14.0,45,0.00,,---,0.00,VWS V14.01,2013-04-21 16:09:00,
2013-04-21 12:10:00,49.4,30.0,30.56,NE,56,9.0,14.0,47,0.00,,---,0.00,VWS V14.01,2013-04-21 16:10:00,
2013-04-21 12:14:00,49.7,31.3,30.56,ENE,72,7.0,10.0,49,0.00,,---,0.00,VWS V14.01,2013-04-21 16:14:00,
2013-04-21 12:19:00,49.4,27.3,30.55,SE,126,1.0,10.0,42,0.00,,---,0.00,VWS V14.01,2013-04-21 16:19:00,
2013-04-21 12:20:00,49.3,28.9,30.55,SE,127,5.0,10.0,45,0.00,,---,0.00,VWS V14.01,2013-04-21 16:20:00,
2013-04-21 12:24:00,49.6,30.7,30.55,East,84,3.0,15.0,48,0.00,,---,0.00,VWS V14.01,2013-04-21 16:24:00,
2013-04-21 12:29:00,49.8,29.3,30.55,SE,146,1.0,15.0,45,0.00,,---,0.00,VWS V14.01,2013-04-21 16:29:00,
2013-04-21 12:30:00,49.8,29.9,30.55,ENE,69,5.0,15.0,46,0.00,,---,0.00,VWS V14.01,2013-04-21 16:30:00,
2013-04-21 12:34:00,50.1,30.7,30.55,NE,39,4.0,9.0,47,0.00,,---,0.00,VWS V14.01,2013-04-21 16:34:00,
2013-04-21 12:39:00,50.3,29.8,30.55,NNE,18,4.0,15.0,45,0.00,,---,0.00,VWS V14.01,2013-04-21 16:39:00,
2013-04-21 12:40:00,50.3,29.8,30.55,NE,50,2.0,15.0,45,0.00,,---,0.00,VWS V14.01,2013-04-21 16:40:00,
2013-04-21 12:44:00,50.4,29.9,30.55,North,356,3.0,7.0,45,0.00,,---,0.00,VWS V14.01,2013-04-21 16:44:00,
2013-04-21 12:49:00,50.5,29.4,30.54,ENE,67,1.0,8.0,44,0.00,,---,0.00,VWS V14.01,2013-04-21 16:49:00,
2013-04-21 12:50:00,50.5,29.4,30.54,NNE,25,1.0,8.0,44,0.00,,---,0.00,VWS V14.01,2013-04-21 16:50:00,
2013-04-21 12:54:00,51.0,30.4,30.54,ENE,71,2.0,5.0,45,0.00,,---,0.00,VWS V14.01,2013-04-21 16:54:00,
2013-04-21 12:59:00,51.5,28.0,30.54,ENE,77,9.0,12.0,40,0.00,,---,0.00,VWS V14.01,2013-04-21 16:59:00,
2013-04-21 13:00:00,51.4,27.9,30.54,ENE,77,8.0,12.0,40,0.00,,---,0.00,VWS V14.01,2013-04-21 17:00:00,
2013-04-21 13:04:00,51.1,28.8,30.54,NE,46,3.0,8.0,42,0.00,,---,0.00,VWS V14.01,2013-04-21 17:04:00,
2013-04-21 13:09:00,51.2,31.1,30.54,WSW,238,1.0,8.0,46,0.00,,---,0.00,VWS V14.01,2013-04-21 17:09:00,
2013-04-21 13:10:00,51.2,29.5,30.54,WSW,255,1.0,8.0,43,0.00,,---,0.00,VWS V14.01,2013-04-21 17:10:00,
2013-04-21 13:14:00,52.4,33.3,30.54,ENE,58,0.0,3.0,48,0.00,,---,0.00,VWS V14.01,2013-04-21 17:14:00,
2013-04-21 13:19:00,53.2,30.1,30.54,ENE,58,8.0,8.0,41,0.00,,---,0.00,VWS V14.01,2013-04-21 17:19:00,
2013-04-21 13:20:00,53.3,31.4,30.54,NE,56,6.0,10.0,43,0.00,,---,0.00,VWS V14.01,2013-04-21 17:20:00,
2013-04-21 13:24:00,52.5,30.1,30.53,ENE,65,1.0,10.0,42,0.00,,---,0.00,VWS V14.01,2013-04-21 17:24:00,
2013-04-21 13:29:00,52.9,29.2,30.53,ENE,65,4.0,20.0,40,0.00,,---,0.00,VWS V14.01,2013-04-21 17:29:00,
2013-04-21 13:30:00,52.8,29.2,30.53,ESE,111,4.0,20.0,40,0.00,,---,0.00,VWS V14.01,2013-04-21 17:30:00,
2013-04-21 13:34:00,52.5,28.3,30.53,East,82,1.0,10.0,39,0.00,,---,0.00,VWS V14.01,2013-04-21 17:34:00,
2013-04-21 13:39:00,52.0,28.5,30.53,North,6,4.0,10.0,40,0.00,,---,0.00,VWS V14.01,2013-04-21 17:39:00,
2013-04-21 13:40:00,52.0,28.5,30.53,NNW,330,4.0,10.0,40,0.00,,---,0.00,VWS V14.01,2013-04-21 17:40:00,
2013-04-21 13:44:00,52.0,31.9,30.53,East,79,6.0,12.0,46,0.00,,---,0.00,VWS V14.01,2013-04-21 17:44:00,
2013-04-21 13:49:00,52.2,31.5,30.53,SE,139,4.0,12.0,45,0.00,,---,0.00,VWS V14.01,2013-04-21 17:49:00,
2013-04-21 13:50:00,52.2,31.5,30.53,ESE,113,4.0,12.0,45,0.00,,---,0.00,VWS V14.01,2013-04-21 17:50:00,
2013-04-21 13:54:00,52.6,29.0,30.53,ENE,70,9.0,13.0,40,0.00,,---,0.00,VWS V14.01,2013-04-21 17:54:00,
2013-04-21 13:59:00,52.4,30.0,30.53,ESE,115,2.0,13.0,42,0.00,,---,0.00,VWS V14.01,2013-04-21 17:59:00,
2013-04-21 14:00:00,52.4,30.0,30.53,ESE,105,2.0,13.0,42,0.00,,---,0.00,VWS V14.01,2013-04-21 18:00:00,
2013-04-21 14:04:00,52.2,29.2,30.53,East,91,2.0,10.0,41,0.00,,---,0.00,VWS V14.01,2013-04-21 18:04:00,
2013-04-21 14:09:00,52.1,30.3,30.53,South,172,5.0,10.0,43,0.00,,---,0.00,VWS V14.01,2013-04-21 18:09:00,
2013-04-21 14:10:00,52.1,29.1,30.53,South,174,5.0,10.0,41,0.00,,---,0.00,VWS V14.01,2013-04-21 18:10:00,
2013-04-21 14:14:00,52.0,29.6,30.52,ESE,105,4.0,7.0,42,0.00,,---,0.00,VWS V14.01,2013-04-21 18:14:00,
2013-04-21 14:19:00,52.2,29.8,30.52,ESE,103,2.0,7.0,42,0.00,,---,0.00,VWS V14.01,2013-04-21 18:19:00,
2013-04-21 14:20:00,52.3,29.9,30.52,ESE,120,3.0,7.0,42,0.00,,---,0.00,VWS V14.01,2013-04-21 18:20:00,
2013-04-21 14:24:00,52.5,30.7,30.52,NNE,16,9.0,16.0,43,0.00,,---,0.00,VWS V14.01,2013-04-21 18:24:00,
2013-04-21 14:29:00,52.4,31.7,30.52,ENE,77,3.0,16.0,45,0.00,,---,0.00,VWS V14.01,2013-04-21 18:29:00,
2013-04-21 14:30:00,52.4,31.7,30.52,East,91,3.0,16.0,45,0.00,,---,0.00,VWS V14.01,2013-04-21 18:30:00,
2013-04-21 14:34:00,52.5,30.7,30.51,ENE,71,4.0,10.0,43,0.00,,---,0.00,VWS V14.01,2013-04-21 18:34:00,
2013-04-21 14:39:00,52.3,29.3,30.51,WNW,302,5.0,10.0,41,0.00,,---,0.00,VWS V14.01,2013-04-21 18:39:00,
2013-04-21 14:40:00,52.3,29.3,30.51,WNW,294,5.0,10.0,41,0.00,,---,0.00,VWS V14.01,2013-04-21 18:40:00,
2013-04-21 14:44:00,52.5,28.9,30.51,NE,39,0.0,8.0,40,0.00,,---,0.00,VWS V14.01,2013-04-21 18:44:00,
2013-04-21 14:49:00,52.9,29.2,30.51,ENE,76,7.0,10.0,40,0.00,,---,0.00,VWS V14.01,2013-04-21 18:49:00,
2013-04-21 14:50:00,52.9,29.2,30.50,ENE,76,6.0,10.0,40,0.00,,---,0.00,VWS V14.01,2013-04-21 18:50:00,
2013-04-21 14:54:00,52.8,29.8,30.50,NNE,20,5.0,11.0,41,0.00,,---,0.00,VWS V14.01,2013-04-21 18:54:00,
2013-04-21 14:59:00,52.9,28.6,30.50,ENE,78,7.0,11.0,39,0.00,,---,0.00,VWS V14.01,2013-04-21 18:59:00,
2013-04-21 15:00:00,52.9,28.6,30.50,ENE,77,7.0,11.0,39,0.00,,---,0.00,VWS V14.01,2013-04-21 19:00:00,
2013-04-21 15:04:00,53.0,29.3,30.50,East,89,5.0,7.0,40,0.00,,---,0.00,VWS V14.01,2013-04-21 19:04:00,
2013-04-21 15:09:00,53.0,30.0,30.50,SSW,200,3.0,7.0,41,0.00,,---,0.00,VWS V14.01,2013-04-21 19:09:00,
2013-04-21 15:10:00,53.0,31.1,30.50,SSW,197,2.0,7.0,43,0.00,,---,0.00,VWS V14.01,2013-04-21 19:10:00,
2013-04-21 15:14:00,53.3,30.8,30.50,NNE,31,3.0,8.0,42,0.00,,---,0.00,VWS V14.01,2013-04-21 19:14:00,
2013-04-21 15:19:00,53.5,30.4,30.50,NE,46,8.0,8.0,41,0.00,,---,0.00,VWS V14.01,2013-04-21 19:19:00,
2013-04-21 15:20:00,53.5,30.4,30.50,NE,54,5.0,8.0,41,0.00,,---,0.00,VWS V14.01,2013-04-21 19:20:00,
2013-04-21 15:24:00,53.4,29.1,30.50,East,91,6.0,8.0,39,0.00,,---,0.00,VWS V14.01,2013-04-21 19:24:00,
2013-04-21 15:29:00,53.2,28.9,30.50,NE,47,5.0,8.0,39,0.00,,---,0.00,VWS V14.01,2013-04-21 19:29:00,
2013-04-21 15:30:00,53.2,28.9,30.50,NE,44,5.0,8.0,39,0.00,,---,0.00,VWS V14.01,2013-04-21 19:30:00,
2013-04-21 15:34:00,52.7,28.5,30.50,East,89,6.0,9.0,39,0.00,,---,0.00,VWS V14.01,2013-04-21 19:34:00,
2013-04-21 15:39:00,52.5,29.5,30.50,East,79,1.0,9.0,41,0.00,,---,0.00,VWS V14.01,2013-04-21 19:39:00,
2013-04-21 15:40:00,52.5,29.5,30.50,East,79,1.0,9.0,41,0.00,,---,0.00,VWS V14.01,2013-04-21 19:40:00,
2013-04-21 15:44:00,52.6,27.7,30.50,NE,46,5.0,10.0,38,0.00,,---,0.00,VWS V14.01,2013-04-21 19:44:00,
2013-04-21 15:49:00,52.6,28.4,30.49,ENE,61,6.0,10.0,39,0.00,,---,0.00,VWS V14.01,2013-04-21 19:49:00,
2013-04-21 15:50:00,52.6,28.4,30.49,NE,51,3.0,10.0,39,0.00,,---,0.00,VWS V14.01,2013-04-21 19:50:00,
2013-04-21 15:54:00,52.8,30.4,30.49,NE,52,1.0,9.0,42,0.00,,---,0.00,VWS V14.01,2013-04-21 19:54:00,
2013-04-21 15:59:00,53.2,30.1,30.50,East,89,2.0,9.0,41,0.00,,---,0.00,VWS V14.01,2013-04-21 19:59:00,
2013-04-21 16:00:00,53.2,30.1,30.50,East,89,3.0,9.0,41,0.00,,---,0.00,VWS V14.01,2013-04-21 20:00:00,
2013-04-21 16:04:00,53.4,29.7,30.49,NE,56,1.0,5.0,40,0.00,,---,0.00,VWS V14.01,2013-04-21 20:04:00,
2013-04-21 16:09:00,53.4,29.1,30.49,East,83,3.0,9.0,39,0.00,,---,0.00,VWS V14.01,2013-04-21 20:09:00,
2013-04-21 16:10:00,53.4,29.7,30.49,ESE,105,3.0,9.0,40,0.00,,---,0.00,VWS V14.01,2013-04-21 20:10:00,
2013-04-21 16:14:00,53.3,29.6,30.49,NE,46,7.0,9.0,40,0.00,,---,0.00,VWS V14.01,2013-04-21 20:14:00,
2013-04-21 16:19:00,52.9,28.0,30.49,NE,44,1.0,9.0,38,0.00,,---,0.00,VWS V14.01,2013-04-21 20:19:00,
2013-04-21 16:20:00,52.9,28.0,30.49,NE,44,1.0,9.0,38,0.00,,---,0.00,VWS V14.01,2013-04-21 20:20:00,
2013-04-21 16:24:00,53.3,30.8,30.49,ESE,103,6.0,8.0,42,0.00,,---,0.00,VWS V14.01,2013-04-21 20:24:00,
2013-04-21 16:29:00,53.5,27.9,30.49,ENE,77,2.0,10.0,37,0.00,,---,0.00,VWS V14.01,2013-04-21 20:29:00,
2013-04-21 16:30:00,53.5,27.9,30.49,East,89,3.0,10.0,37,0.00,,---,0.00,VWS V14.01,2013-04-21 20:30:00,
2013-04-21 16:34:00,53.5,29.2,30.49,East,89,1.0,7.0,39,0.00,,---,0.00,VWS V14.01,2013-04-21 20:34:00,
2013-04-21 16:39:00,53.5,29.2,30.49,ENE,69,5.0,10.0,39,0.00,,---,0.00,VWS V14.01,2013-04-21 20:39:00,
2013-04-21 16:40:00,53.5,29.2,30.49,East,90,6.0,10.0,39,0.00,,---,0.00,VWS V14.01,2013-04-21 20:40:00,
2013-04-21 16:44:00,53.0,29.3,30.49,ESE,113,3.0,8.0,40,0.00,,---,0.00,VWS V14.01,2013-04-21 20:44:00,
2013-04-21 16:49:00,52.8,30.4,30.49,NE,40,2.0,8.0,42,0.00,,---,0.00,VWS V14.01,2013-04-21 20:49:00,
2013-04-21 16:50:00,52.8,30.4,30.49,NE,43,2.0,8.0,42,0.00,,---,0.00,VWS V14.01,2013-04-21 20:50:00,
2013-04-21 16:54:00,53.2,31.3,30.49,ENE,66,4.0,7.0,43,0.00,,---,0.00,VWS V14.01,2013-04-21 20:54:00,
2013-04-21 16:59:00,53.2,28.9,30.49,NE,43,2.0,7.0,39,0.00,,---,0.00,VWS V14.01,2013-04-21 20:59:00,
2013-04-21 17:00:00,53.3,29.0,30.49,NE,47,2.0,7.0,39,0.00,,---,0.00,VWS V14.01,2013-04-21 21:00:00,
2013-04-21 17:04:00,53.5,29.2,30.49,ESE,123,2.0,8.0,39,0.00,,---,0.00,VWS V14.01,2013-04-21 21:04:00,
2013-04-21 17:09:00,53.2,28.9,30.49,East,96,5.0,8.0,39,0.00,,---,0.00,VWS V14.01,2013-04-21 21:09:00,
2013-04-21 17:10:00,53.2,28.9,30.49,ESE,113,4.0,8.0,39,0.00,,---,0.00,VWS V14.01,2013-04-21 21:10:00,
2013-04-21 17:14:00,52.9,29.2,30.49,NE,51,4.0,7.0,40,0.00,,---,0.00,VWS V14.01,2013-04-21 21:14:00,
2013-04-21 17:19:00,53.6,29.3,30.49,ENE,65,5.0,7.0,39,0.00,,---,0.00,VWS V14.01,2013-04-21 21:19:00,
2013-04-21 17:20:00,53.5,29.2,30.49,ENE,64,4.0,7.0,39,0.00,,---,0.00,VWS V14.01,2013-04-21 21:20:00,
2013-04-21 17:24:00,53.5,29.2,30.49,North,352,1.0,4.0,39,0.00,,---,0.00,VWS V14.01,2013-04-21 21:24:00,
2013-04-21 17:29:00,53.5,27.9,30.48,ENE,75,0.0,7.0,37,0.00,,---,0.00,VWS V14.01,2013-04-21 21:29:00,
2013-04-21 17:30:00,53.5,27.9,30.48,ENE,75,0.0,7.0,37,0.00,,---,0.00,VWS V14.01,2013-04-21 21:30:00,
2013-04-21 17:34:00,53.5,29.8,30.48,SE,125,1.0,2.0,40,0.00,,---,0.00,VWS V14.01,2013-04-21 21:34:00,
2013-04-21 17:39:00,53.6,31.1,30.48,ENE,68,2.0,5.0,42,0.00,,---,0.00,VWS V14.01,2013-04-21 21:39:00,
2013-04-21 17:40:00,53.6,31.1,30.49,East,80,2.0,5.0,42,0.00,,---,0.00,VWS V14.01,2013-04-21 21:40:00,
2013-04-21 17:44:00,53.7,28.1,30.49,North,11,4.0,7.0,37,0.00,,---,0.00,VWS V14.01,2013-04-21 21:44:00,
2013-04-21 17:49:00,53.2,28.9,30.49,ENE,62,2.0,7.0,39,0.00,,---,0.00,VWS V14.01,2013-04-21 21:49:00,
2013-04-21 17:50:00,53.2,28.9,30.49,East,79,2.0,7.0,39,0.00,,---,0.00,VWS V14.01,2013-04-21 21:50:00,
2013-04-21 17:54:00,52.8,29.8,30.49,NNE,19,2.0,6.0,41,0.00,,---,0.00,VWS V14.01,2013-04-21 21:54:00,
2013-04-21 17:59:00,52.6,27.7,30.49,NNW,344,1.0,6.0,38,0.00,,---,0.00,VWS V14.01,2013-04-21 21:59:00,
2013-04-21 18:00:00,52.6,27.7,30.49,NNW,345,0.0,6.0,38,0.00,,---,0.00,VWS V14.01,2013-04-21 22:00:00,
2013-04-21 18:04:00,52.5,28.3,30.49,NNE,28,2.0,4.0,39,0.00,,---,0.00,VWS V14.01,2013-04-21 22:04:00,
2013-04-21 18:09:00,52.4,28.2,30.49,ENE,58,4.0,4.0,39,0.00,,---,0.00,VWS V14.01,2013-04-21 22:09:00,
2013-04-21 18:10:00,52.4,28.2,30.49,NE,56,4.0,4.0,39,0.00,,---,0.00,VWS V14.01,2013-04-21 22:10:00,
2013-04-21 18:14:00,52.2,28.6,30.49,North,1,2.0,5.0,40,0.00,,---,0.00,VWS V14.01,2013-04-21 22:14:00,
2013-04-21 18:19:00,52.1,29.1,30.49,North,360,0.0,5.0,41,0.00,,---,0.00,VWS V14.01,2013-04-21 22:19:00,
2013-04-21 18:20:00,52.1,29.1,30.49,North,360,0.0,5.0,41,0.00,,---,0.00,VWS V14.01,2013-04-21 22:20:00,
2013-04-21 18:24:00,52.0,28.5,30.49,NE,44,3.0,5.0,40,0.00,,---,0.00,VWS V14.01,2013-04-21 22:24:00,
2013-04-21 18:29:00,51.8,28.3,30.49,ENE,67,1.0,5.0,40,0.00,,---,0.00,VWS V14.01,2013-04-21 22:29:00,
2013-04-21 18:30:00,51.8,28.3,30.49,NE,38,1.0,5.0,40,0.00,,---,0.00,VWS V14.01,2013-04-21 22:30:00,
2013-04-21 18:34:00,51.7,28.2,30.49,NNE,31,0.0,5.0,40,0.00,,---,0.00,VWS V14.01,2013-04-21 22:34:00,
2013-04-21 18:39:00,51.4,28.5,30.49,NNE,32,0.0,5.0,41,0.00,,---,0.00,VWS V14.01,2013-04-21 22:39:00,
2013-04-21 18:40:00,51.4,28.5,30.49,NNE,33,0.0,5.0,41,0.00,,---,0.00,VWS V14.01,2013-04-21 22:40:00,
2013-04-21 18:44:00,51.3,29.0,30.49,East,85,0.0,4.0,42,0.00,,---,0.00,VWS V14.01,2013-04-21 22:44:00,
2013-04-21 18:49:00,51.0,29.9,30.49,ENE,70,1.0,4.0,44,0.00,,---,0.00,VWS V14.01,2013-04-21 22:49:00,
2013-04-21 18:50:00,51.0,29.9,30.49,ENE,72,1.0,4.0,44,0.00,,---,0.00,VWS V14.01,2013-04-21 22:50:00,
2013-04-21 18:54:00,50.8,28.5,30.49,ENE,64,2.0,3.0,42,0.00,,---,0.00,VWS V14.01,2013-04-21 22:54:00,
2013-04-21 18:59:00,50.8,28.5,30.49,NE,43,1.0,3.0,42,0.00,,---,0.00,VWS V14.01,2013-04-21 22:59:00,
2013-04-21 19:00:00,50.8,28.5,30.49,NE,43,1.0,3.0,42,0.00,,---,0.00,VWS V14.01,2013-04-21 23:00:00,
2013-04-21 19:04:00,50.7,29.0,30.49,NNE,33,0.0,3.0,43,0.00,,---,0.00,VWS V14.01,2013-04-21 23:04:00,
2013-04-21 19:09:00,50.5,29.4,30.49,ENE,70,1.0,4.0,44,0.00,,---,0.00,VWS V14.01,2013-04-21 23:09:00,
2013-04-21 19:10:00,50.5,29.4,30.49,ENE,70,1.0,4.0,44,0.00,,---,0.00,VWS V14.01,2013-04-21 23:10:00,
2013-04-21 19:14:00,50.3,29.2,30.49,NNE,29,2.0,4.0,44,0.00,,---,0.00,VWS V14.01,2013-04-21 23:14:00,
2013-04-21 19:19:00,50.1,29.0,30.49,ENE,60,2.0,4.0,44,0.00,,---,0.00,VWS V14.01,2013-04-21 23:19:00,
2013-04-21 19:20:00,50.1,29.0,30.49,ENE,60,2.0,4.0,44,0.00,,---,0.00,VWS V14.01,2013-04-21 23:20:00,
2013-04-21 19:24:00,49.8,28.8,30.49,ENE,63,1.0,2.0,44,0.00,,---,0.00,VWS V14.01,2013-04-21 23:24:00,
2013-04-21 19:29:00,49.6,29.1,30.49,NNE,20,0.0,0.0,45,0.00,,---,0.00,VWS V14.01,2013-04-21 23:29:00,
2013-04-21 19:30:00,49.7,29.2,30.49,NNE,20,0.0,3.0,45,0.00,,---,0.00,VWS V14.01,2013-04-21 23:30:00,
2013-04-21 19:34:00,49.4,29.5,30.49,NNE,17,1.0,1.0,46,0.00,,---,0.00,VWS V14.01,2013-04-21 23:34:00,
2013-04-21 19:39:00,48.9,30.1,30.49,NNE,27,1.0,1.0,48,0.00,,---,0.00,VWS V14.01,2013-04-21 23:39:00,
2013-04-21 19:40:00,49.0,30.2,30.49,NNE,22,1.0,2.0,48,0.00,,---,0.00,VWS V14.01,2013-04-21 23:40:00,
2013-04-21 19:44:00,48.6,30.3,30.49,NE,36,0.0,2.0,49,0.00,,---,0.00,VWS V14.01,2013-04-21 23:44:00,
2013-04-21 19:49:00,48.0,31.2,30.50,NE,53,0.0,1.0,52,0.00,,---,0.00,VWS V14.01,2013-04-21 23:49:00,
2013-04-21 19:50:00,48.0,31.2,30.50,NE,53,1.0,2.0,52,0.00,,---,0.00,VWS V14.01,2013-04-21 23:50:00,
2013-04-21 19:54:00,47.4,30.7,30.49,ENE,74,0.0,2.0,52,0.00,,---,0.00,VWS V14.01,2013-04-21 23:54:00,
2013-04-21 19:59:00,46.8,31.0,30.50,NW,304,0.0,0.0,54,0.00,,---,0.00,VWS V14.01,2013-04-21 23:59:00,
2013-04-21 20:00:00,46.9,31.6,30.50,NW,305,0.0,2.0,55,0.00,,---,0.00,VWS V14.01,2013-04-22 00:00:00,
2013-04-21 20:04:00,46.3,31.5,30.50,NNE,31,0.0,1.0,56,0.00,,---,0.00,VWS V14.01,2013-04-22 00:04:00,
2013-04-21 20:09:00,45.8,31.9,30.50,NNE,32,0.0,0.0,58,0.00,,---,0.00,VWS V14.01,2013-04-22 00:09:00,
2013-04-21 20:10:00,45.8,31.9,30.50,NNE,31,0.0,1.0,58,0.00,,---,0.00,VWS V14.01,2013-04-22 00:10:00,
2013-04-21 20:15:00,45.1,31.2,30.50,NNE,30,0.0,0.0,58,0.00,,---,0.00,VWS V14.01,2013-04-22 00:15:00,
2013-04-21 20:20:00,44.5,32.7,30.50,NW,322,0.0,0.0,63,0.00,,---,0.00,VWS V14.01,2013-04-22 00:20:00,
2013-04-21 20:25:00,43.9,32.1,30.50,NW,322,0.0,0.0,63,0.00,,---,0.00,VWS V14.01,2013-04-22 00:25:00,
2013-04-21 20:30:00,43.3,32.7,30.50,NW,322,0.0,0.0,66,0.00,,---,0.00,VWS V14.01,2013-04-22 00:30:00,
2013-04-21 20:35:00,42.7,32.9,30.50,NW,322,0.0,0.0,68,0.00,,---,0.00,VWS V14.01,2013-04-22 00:35:00,
2013-04-21 20:40:00,42.2,33.1,30.50,NW,321,0.0,0.0,70,0.00,,---,0.00,VWS V14.01,2013-04-22 00:40:00,
2013-04-21 20:45:00,41.6,34.3,30.51,NW,321,0.0,0.0,75,0.00,,---,0.00,VWS V14.01,2013-04-22 00:45:00,
2013-04-21 20:50:00,41.1,34.1,30.51,NW,321,0.0,0.0,76,0.00,,---,0.00,VWS V14.01,2013-04-22 00:50:00,
2013-04-21 20:55:00,40.9,34.3,30.51,NW,321,0.0,0.0,77,0.00,,---,0.00,VWS V14.01,2013-04-22 00:55:00,
2013-04-21 21:00:00,40.5,33.5,30.51,NW,321,0.0,0.0,76,0.00,,---,0.00,VWS V14.01,2013-04-22 01:00:00,
2013-04-21 21:05:00,40.0,33.4,30.51,NW,321,0.0,0.0,77,0.00,,---,0.00,VWS V14.01,2013-04-22 01:05:00,
2013-04-21 21:10:00,39.6,33.6,30.52,SW,236,0.0,0.0,79,0.00,,---,0.00,VWS V14.01,2013-04-22 01:10:00,
2013-04-21 21:15:00,39.4,33.4,30.52,SW,235,0.0,0.0,79,0.00,,---,0.00,VWS V14.01,2013-04-22 01:15:00,
2013-04-21 21:20:00,39.2,33.9,30.52,SW,235,0.0,0.0,81,0.00,,---,0.00,VWS V14.01,2013-04-22 01:20:00,
2013-04-21 21:25:00,39.1,34.1,30.52,SW,235,0.0,0.0,82,0.00,,---,0.00,VWS V14.01,2013-04-22 01:25:00,
2013-04-21 21:30:00,38.9,33.6,30.52,SW,236,0.0,0.0,81,0.00,,---,0.00,VWS V14.01,2013-04-22 01:30:00,
2013-04-21 21:35:00,38.9,33.0,30.53,SW,236,0.0,0.0,79,0.00,,---,0.00,VWS V14.01,2013-04-22 01:35:00,
2013-04-21 21:40:00,38.7,33.1,30.53,SW,236,0.0,0.0,80,0.00,,---,0.00,VWS V14.01,2013-04-22 01:40:00,
2013-04-21 21:45:00,38.7,33.4,30.53,ENE,63,0.0,1.0,81,0.00,,---,0.00,VWS V14.01,2013-04-22 01:45:00,
2013-04-21 21:50:00,39.6,33.0,30.53,ESE,104,0.0,0.0,77,0.00,,---,0.00,VWS V14.01,2013-04-22 01:50:00,
2013-04-21 21:55:00,39.7,33.1,30.53,ESE,104,0.0,1.0,77,0.00,,---,0.00,VWS V14.01,2013-04-22 01:55:00,
2013-04-21 22:00:00,39.2,32.6,30.54,ESE,105,0.0,0.0,77,0.00,,---,0.00,VWS V14.01,2013-04-22 02:00:00,
2013-04-21 22:05:00,38.9,32.6,30.54,ESE,105,0.0,0.0,78,0.00,,---,0.00,VWS V14.01,2013-04-22 02:05:00,
2013-04-21 22:10:00,38.7,32.4,30.54,ENE,76,0.0,0.0,78,0.00,,---,0.00,VWS V14.01,2013-04-22 02:10:00,
2013-04-21 22:15:00,39.7,31.8,30.54,ENE,75,4.0,4.0,73,0.00,,---,0.00,VWS V14.01,2013-04-22 02:15:00,
2013-04-21 22:20:00,41.4,32.0,30.54,East,100,1.0,2.0,69,0.00,,---,0.00,VWS V14.01,2013-04-22 02:20:00,
2013-04-21 22:25:00,42.0,31.9,30.54,East,89,2.0,3.0,67,0.00,,---,0.00,VWS V14.01,2013-04-22 02:25:00,
2013-04-21 22:30:00,42.9,31.6,30.55,East,92,3.0,5.0,64,0.00,,---,0.00,VWS V14.01,2013-04-22 02:30:00,
2013-04-21 22:35:00,43.6,31.9,30.54,ENE,77,5.0,6.0,63,0.00,,---,0.00,VWS V14.01,2013-04-22 02:35:00,
2013-04-21 22:40:00,43.9,32.1,30.55,ENE,75,4.0,5.0,63,0.00,,---,0.00,VWS V14.01,2013-04-22 02:40:00,
2013-04-21 22:45:00,43.9,31.7,30.55,East,84,2.0,5.0,62,0.00,,---,0.00,VWS V14.01,2013-04-22 02:45:00,
2013-04-21 22:50:00,43.7,31.1,30.55,East,86,0.0,2.0,61,0.00,,---,0.00,VWS V14.01,2013-04-22 02:50:00,
2013-04-21 22:55:00,43.5,31.4,30.55,ENE,70,3.0,3.0,62,0.00,,---,0.00,VWS V14.01,2013-04-22 02:55:00,
2013-04-21 23:00:00,43.5,31.0,30.54,East,88,1.0,2.0,61,0.00,,---,0.00,VWS V14.01,2013-04-22 03:00:00,
2013-04-21 23:05:00,43.3,31.2,30.55,East,79,1.0,3.0,62,0.00,,---,0.00,VWS V14.01,2013-04-22 03:05:00,
2013-04-21 23:10:00,43.3,31.2,30.54,East,79,3.0,3.0,62,0.00,,---,0.00,VWS V14.01,2013-04-22 03:10:00,
2013-04-21 23:15:00,43.3,31.2,30.54,ENE,68,4.0,4.0,62,0.00,,---,0.00,VWS V14.01,2013-04-22 03:15:00,
2013-04-21 23:20:00,43.1,31.0,30.54,ENE,77,1.0,2.0,62,0.00,,---,0.00,VWS V14.01,2013-04-22 03:20:00,
2013-04-21 23:25:00,42.8,31.1,30.54,ENE,74,1.0,2.0,63,0.00,,---,0.00,VWS V14.01,2013-04-22 03:25:00,
2013-04-21 23:30:00,42.6,31.7,30.54,ENE,74,0.0,0.0,65,0.00,,---,0.00,VWS V14.01,2013-04-22 03:30:00,
2013-04-21 23:35:00,42.2,31.7,30.54,ENE,74,0.0,1.0,66,0.00,,---,0.00,VWS V14.01,2013-04-22 03:35:00,
2013-04-21 23:40:00,41.7,31.9,30.54,NNE,29,0.0,0.0,68,0.00,,---,0.00,VWS V14.01,2013-04-22 03:40:00,
2013-04-21 23:45:00,41.4,32.4,30.54,North,11,0.0,1.0,70,0.00,,---,0.00,VWS V14.01,2013-04-22 03:45:00,
2013-04-21 23:50:00,40.9,31.5,30.54,North,11,0.0,0.0,69,0.00,,---,0.00,VWS V14.01,2013-04-22 03:50:00,
2013-04-21 23:55:00,40.0,32.4,30.54,North,11,0.0,0.0,74,0.00,,---,0.00,VWS V14.01,2013-04-22 03:55:00,